createdAt,value
2019-06-08T00:02:27.818Z,56.9
2019-06-08T00:07:29.096Z,57.2
2019-06-08T00:12:28.427Z,57.1
2019-06-08T00:17:39.287Z,57.0
2019-06-08T00:22:28.112Z,57.2
2019-06-08T00:27:29.081Z,57.1
2019-06-08T00:32:29.056Z,57.0
2019-06-08T00:37:29.014Z,57.0
2019-06-08T00:42:28.430Z,57.2
2019-06-08T00:47:48.303Z,57.1
2019-06-08T00:52:29.780Z,57.0
2019-06-08T00:57:28.176Z,57.1
2019-06-08T01:02:29.621Z,57.1
2019-06-08T01:07:30.419Z,57.2
2019-06-08T01:12:29.517Z,57.3
2019-06-08T01:17:29.750Z,57.1
2019-06-08T01:22:29.531Z,57.4
2019-06-08T01:27:30.517Z,57.3
2019-06-08T01:32:28.952Z,57.2
2019-06-08T01:37:29.632Z,57.1
2019-06-08T01:42:28.126Z,57.3
2019-06-08T01:47:30.728Z,57.1
2019-06-08T01:52:29.319Z,57.2
2019-06-08T01:57:29.747Z,57.3
2019-06-08T02:02:30.328Z,57.3
2019-06-08T02:07:28.777Z,57.6
2019-06-08T02:12:30.803Z,57.5
2019-06-08T02:17:29.686Z,57.5
2019-06-08T02:22:29.207Z,57.5
2019-06-08T02:27:28.972Z,57.7
2019-06-08T02:32:33.085Z,57.6
2019-06-08T02:37:30.697Z,57.8
2019-06-08T02:42:31.061Z,57.5
2019-06-08T02:47:30.409Z,57.7
2019-06-08T02:52:31.789Z,57.6
2019-06-08T02:57:30.990Z,57.8
2019-06-08T03:02:31.493Z,57.7
2019-06-08T03:07:30.071Z,57.6
2019-06-08T03:12:28.647Z,57.7
2019-06-08T03:17:28.856Z,57.8
2019-06-08T03:22:28.765Z,57.9
2019-06-08T03:27:27.964Z,57.8
2019-06-08T03:32:28.833Z,57.8
2019-06-08T03:37:28.866Z,57.7
2019-06-08T03:42:28.712Z,57.8
2019-06-08T03:47:28.760Z,57.9
2019-06-08T03:52:29.415Z,57.9
2019-06-08T03:57:27.884Z,57.9
2019-06-08T04:02:28.175Z,57.9
2019-06-08T04:07:29.907Z,57.9
2019-06-08T04:12:29.027Z,57.9
2019-06-08T04:17:28.785Z,57.9
2019-06-08T04:22:28.933Z,57.8
2019-06-08T04:27:28.632Z,57.7
2019-06-08T04:32:28.726Z,57.7
2019-06-08T04:37:29.086Z,57.7
2019-06-08T04:42:28.651Z,57.6
2019-06-08T04:47:29.415Z,57.6
2019-06-08T04:52:29.913Z,57.5
2019-06-08T04:57:28.788Z,57.4
2019-06-08T05:02:28.786Z,57.4
2019-06-08T05:07:29.104Z,57.2
2019-06-08T05:12:28.481Z,57.1
2019-06-08T05:17:29.109Z,57.2
2019-06-08T05:22:29.189Z,57.1
2019-06-08T05:27:29.489Z,57.1
2019-06-08T05:32:28.189Z,57.1
2019-06-08T05:37:28.385Z,57.1
2019-06-08T05:42:29.112Z,57.2
2019-06-08T05:47:29.010Z,57.4
2019-06-08T05:52:28.774Z,57.6
2019-06-08T05:57:28.125Z,57.4
2019-06-08T06:02:28.558Z,56.9
2019-06-08T06:07:28.870Z,56.7
2019-06-08T06:12:28.454Z,56.4
2019-06-08T06:17:28.222Z,56.3
2019-06-08T06:22:28.206Z,56.4
2019-06-08T06:27:28.351Z,56.3
2019-06-08T06:32:29.015Z,56.5
2019-06-08T06:37:28.515Z,56.4
2019-06-08T06:42:28.285Z,56.4
2019-06-08T06:47:30.040Z,56.4
2019-06-08T06:52:29.363Z,56.7
2019-06-08T06:57:29.095Z,56.8
2019-06-08T07:02:28.623Z,56.7
2019-06-08T07:07:28.905Z,56.7
2019-06-08T07:12:28.507Z,56.4
2019-06-08T07:17:29.015Z,56.4
2019-06-08T07:22:29.182Z,56.6
2019-06-08T07:27:28.655Z,56.4
2019-06-08T07:32:28.434Z,56.5
2019-06-08T07:37:29.542Z,56.2
2019-06-08T07:42:28.127Z,56.2
2019-06-08T07:47:28.721Z,56.4
2019-06-08T07:52:28.398Z,55.8
2019-06-08T07:57:28.331Z,55.7
2019-06-08T08:02:28.258Z,56.1
2019-06-08T08:07:29.648Z,55.8
2019-06-08T08:12:28.657Z,56.1
2019-06-08T08:17:34.723Z,56.1
2019-06-08T08:22:30.068Z,55.9
2019-06-08T08:27:28.935Z,55.9
2019-06-08T08:32:29.184Z,55.9
2019-06-08T08:37:29.221Z,55.8
2019-06-08T08:42:30.673Z,56.0
2019-06-08T08:47:31.300Z,56.0
2019-06-08T08:52:40.641Z,56.1
2019-06-08T08:57:29.285Z,56.2
2019-06-08T09:02:28.991Z,55.6
2019-06-08T09:07:28.644Z,55.5
2019-06-08T09:12:28.695Z,55.8
2019-06-08T09:17:29.202Z,55.4
2019-06-08T09:22:31.724Z,56.0
2019-06-08T09:27:28.567Z,55.4
2019-06-08T09:32:29.241Z,55.4
2019-06-08T09:37:29.220Z,56.0
2019-06-08T09:42:30.075Z,56.0
2019-06-08T09:47:28.746Z,55.7
2019-06-08T09:52:28.803Z,55.8
2019-06-08T09:57:28.858Z,55.7
2019-06-08T10:02:28.893Z,56.0
2019-06-08T10:07:31.780Z,55.9
2019-06-08T10:12:29.402Z,56.6
2019-06-08T10:17:28.531Z,55.5
2019-06-08T10:22:28.739Z,55.4
2019-06-08T10:27:28.842Z,56.0
2019-06-08T10:32:30.058Z,56.2
2019-06-08T10:37:30.314Z,55.7
2019-06-08T10:42:28.980Z,54.6
2019-06-08T10:47:30.182Z,55.8
2019-06-08T10:52:28.951Z,55.5
2019-06-08T10:57:28.902Z,55.8
2019-06-08T11:02:28.753Z,55.7
2019-06-08T11:07:28.902Z,55.5
2019-06-08T11:12:28.767Z,55.2
2019-06-08T11:17:29.259Z,55.1
2019-06-08T11:22:30.708Z,55.7
2019-06-08T11:27:29.056Z,55.6
2019-06-08T11:32:28.568Z,55.5
2019-06-08T11:37:29.343Z,55.5
2019-06-08T11:42:29.102Z,55.5
2019-06-08T11:47:31.580Z,55.3
2019-06-08T11:52:29.062Z,53.8
2019-06-08T11:57:29.775Z,56.1
2019-06-08T12:02:28.860Z,55.6
2019-06-08T12:07:30.755Z,56.3
2019-06-08T12:12:28.966Z,56.3
2019-06-08T12:17:29.824Z,55.8
2019-06-08T12:22:28.970Z,56.5
2019-06-08T12:27:39.486Z,56.5
2019-06-08T12:32:29.422Z,55.9
2019-06-08T12:37:28.419Z,56.3
2019-06-08T12:42:28.741Z,56.2
2019-06-08T12:47:30.348Z,55.7
2019-06-08T12:52:30.198Z,54.9
2019-06-08T12:57:29.108Z,56.3
2019-06-08T13:02:28.964Z,56.4
2019-06-08T13:07:29.685Z,56.4
2019-06-08T13:12:29.108Z,56.0
2019-06-08T13:17:29.023Z,56.3
2019-06-08T13:22:31.785Z,55.6
2019-06-08T13:27:28.637Z,56.1
2019-06-08T13:32:29.098Z,55.9
2019-06-08T13:37:29.417Z,55.9
2019-06-08T13:42:28.377Z,56.0
2019-06-08T13:47:28.787Z,55.8
2019-06-08T13:52:29.898Z,55.5
2019-06-08T13:57:27.971Z,56.3
2019-06-08T14:02:32.045Z,55.2
2019-06-08T14:07:34.871Z,56.3
2019-06-08T14:12:31.173Z,56.5
2019-06-08T14:17:28.464Z,56.3
2019-06-08T14:22:30.706Z,56.5
2019-06-08T14:27:33.474Z,55.9
2019-06-08T14:32:28.992Z,55.7
2019-06-08T14:37:30.944Z,56.0
2019-06-08T14:42:31.897Z,51.7
2019-06-08T14:47:30.498Z,50.3
2019-06-08T14:52:31.175Z,50.3
2019-06-08T14:57:31.227Z,49.3
2019-06-08T15:02:31.686Z,46.8
2019-06-08T15:07:32.737Z,46.6
2019-06-08T15:12:31.672Z,44.7
2019-06-08T15:17:32.328Z,42.4
2019-06-08T15:22:31.945Z,42.3
2019-06-08T15:27:33.545Z,41.6
2019-06-08T15:32:35.475Z,40.4
2019-06-08T15:37:31.971Z,40.7
2019-06-08T15:42:32.323Z,40.4
2019-06-08T15:47:28.786Z,40.4
2019-06-08T15:52:32.946Z,39.4
2019-06-08T15:57:36.542Z,40.6
2019-06-08T16:02:29.848Z,40.1
2019-06-08T16:07:33.707Z,39.8
2019-06-08T16:12:28.879Z,39.8
2019-06-08T16:17:30.965Z,40.0
2019-06-08T16:22:28.180Z,39.6
2019-06-08T16:27:30.206Z,39.4
2019-06-08T16:32:31.346Z,39.9
2019-06-08T16:37:29.476Z,40.0
2019-06-08T16:42:30.177Z,40.0
2019-06-08T16:47:29.396Z,40.3
2019-06-08T16:52:30.819Z,40.3
2019-06-08T16:57:29.317Z,40.0
2019-06-08T17:02:28.964Z,40.7
2019-06-08T17:07:29.668Z,41.4
2019-06-08T17:12:28.539Z,41.2
2019-06-08T17:17:32.016Z,40.7
2019-06-08T17:22:28.401Z,41.1
2019-06-08T17:27:30.756Z,42.0
2019-06-08T17:32:29.027Z,42.0
2019-06-08T17:37:28.873Z,42.3
2019-06-08T17:42:29.275Z,43.2
2019-06-08T17:47:29.325Z,44.1
2019-06-08T17:52:28.506Z,44.0
2019-06-08T17:57:52.553Z,44.6
2019-06-08T18:02:31.925Z,44.6
2019-06-08T18:07:29.449Z,44.6
2019-06-08T18:12:29.914Z,44.3
2019-06-08T18:17:29.001Z,44.6
2019-06-08T18:22:30.380Z,49.7
2019-06-08T18:27:28.971Z,52.6
2019-06-08T18:32:28.962Z,53.9
2019-06-08T18:37:28.919Z,54.5
2019-06-08T18:42:29.051Z,54.9
2019-06-08T18:47:29.358Z,54.6
2019-06-08T18:52:28.653Z,54.6
2019-06-08T18:57:29.033Z,54.8
2019-06-08T19:02:29.140Z,54.5
2019-06-08T19:07:29.037Z,54.3
2019-06-08T19:12:28.965Z,54.3
2019-06-08T19:17:29.744Z,54.0
2019-06-08T19:22:30.803Z,54.1
2019-06-08T19:27:28.705Z,54.2
2019-06-08T19:32:29.286Z,53.9
2019-06-08T19:37:32.678Z,53.9
2019-06-08T19:42:49.298Z,54.0
2019-06-08T19:47:28.472Z,54.0
2019-06-08T19:52:28.991Z,53.9
2019-06-08T19:57:29.231Z,53.6
2019-06-08T20:02:28.486Z,53.6
2019-06-08T20:07:28.507Z,53.4
2019-06-08T20:12:28.714Z,53.4
2019-06-08T20:17:29.402Z,53.4
2019-06-08T20:22:28.802Z,53.5
2019-06-08T20:27:29.064Z,53.3
2019-06-08T20:32:28.788Z,53.3
2019-06-08T20:37:29.010Z,53.3
2019-06-08T20:42:29.480Z,53.4
2019-06-08T20:47:28.746Z,53.3
2019-06-08T20:52:28.874Z,53.3
2019-06-08T20:57:28.870Z,53.4
2019-06-08T21:02:29.261Z,53.4
2019-06-08T21:07:28.838Z,53.3
2019-06-08T21:12:28.814Z,53.2
2019-06-08T21:17:29.978Z,53.0
2019-06-08T21:22:28.842Z,53.1
2019-06-08T21:27:28.846Z,52.8
2019-06-08T21:32:29.333Z,52.8
2019-06-08T21:37:28.805Z,52.8
2019-06-08T21:42:28.390Z,52.9
2019-06-08T21:47:29.241Z,52.8
2019-06-08T21:52:29.449Z,52.5
2019-06-08T21:57:28.753Z,52.4
2019-06-08T22:02:28.844Z,52.3
2019-06-08T22:07:28.765Z,52.3
2019-06-08T22:12:29.183Z,52.3
2019-06-08T22:22:41.822Z,52.1
2019-06-08T22:27:40.148Z,52.6
2019-06-08T22:32:41.758Z,52.4
2019-06-08T22:37:41.622Z,52.6
2019-06-08T22:42:40.553Z,52.5
2019-06-08T22:47:40.799Z,52.4
2019-06-08T22:52:40.199Z,52.4
2019-06-08T22:57:40.766Z,52.3
2019-06-08T23:02:40.196Z,52.4
2019-06-08T23:07:40.768Z,52.3
2019-06-08T23:12:29.134Z,52.2
2019-06-08T23:17:28.546Z,52.2
2019-06-08T23:22:28.675Z,52.3
2019-06-08T23:27:28.502Z,52.1
2019-06-08T23:32:28.320Z,51.9
2019-06-08T23:37:28.199Z,51.9
2019-06-08T23:42:28.220Z,51.9
2019-06-08T23:47:27.918Z,52.0
2019-06-08T23:52:28.378Z,52.0
2019-06-08T23:57:28.649Z,51.8
